sensor_id;sensor_type;location;lat;lon;timestamp;P1;durP1;ratioP1;P2;durP2;ratioP2
11731;SDS011;5922;53.734;10.258;2023-11-21T00:02:26;13.83;;;9.30;;
11731;SDS011;5922;53.734;10.258;2023-11-21T00:04:53;13.50;;;9.37;;
11731;SDS011;5922;53.734;10.258;2023-11-21T00:07:20;16.70;;;10.50;;
11731;SDS011;5922;53.734;10.258;2023-11-21T00:09:48;15.57;;;10.43;;
11731;SDS011;5922;53.734;10.258;2023-11-21T00:12:16;14.63;;;10.13;;
11731;SDS011;5922;53.734;10.258;2023-11-21T00:14:44;17.80;;;10.57;;
11731;SDS011;5922;53.734;10.258;2023-11-21T00:17:12;15.63;;;9.80;;
11731;SDS011;5922;53.734;10.258;2023-11-21T00:19:39;15.77;;;11.10;;
11731;SDS011;5922;53.734;10.258;2023-11-21T00:22:07;14.90;;;10.20;;
11731;SDS011;5922;53.734;10.258;2023-11-21T00:24:36;15.73;;;9.87;;
11731;SDS011;5922;53.734;10.258;2023-11-21T00:27:03;14.87;;;9.27;;
11731;SDS011;5922;53.734;10.258;2023-11-21T00:29:32;11.20;;;7.40;;
11731;SDS011;5922;53.734;10.258;2023-11-21T00:32:01;9.93;;;8.10;;
11731;SDS011;5922;53.734;10.258;2023-11-21T00:34:28;10.93;;;7.90;;
11731;SDS011;5922;53.734;10.258;2023-11-21T00:36:55;10.73;;;8.23;;
11731;SDS011;5922;53.734;10.258;2023-11-21T00:39:23;12.40;;;8.60;;
11731;SDS011;5922;53.734;10.258;2023-11-21T00:41:51;16.43;;;10.80;;
11731;SDS011;5922;53.734;10.258;2023-11-21T00:44:19;13.57;;;8.97;;
11731;SDS011;5922;53.734;10.258;2023-11-21T00:46:46;13.73;;;9.93;;
11731;SDS011;5922;53.734;10.258;2023-11-21T00:49:14;13.63;;;10.13;;
11731;SDS011;5922;53.734;10.258;2023-11-21T00:51:42;11.50;;;6.97;;
11731;SDS011;5922;53.734;10.258;2023-11-21T00:54:09;10.27;;;7.63;;
11731;SDS011;5922;53.734;10.258;2023-11-21T00:56:36;8.30;;;6.87;;
11731;SDS011;5922;53.734;10.258;2023-11-21T00:59:05;8.17;;;6.73;;
11731;SDS011;5922;53.734;10.258;2023-11-21T01:01:32;8.37;;;6.13;;
11731;SDS011;5922;53.734;10.258;2023-11-21T01:03:59;8.43;;;6.30;;
11731;SDS011;5922;53.734;10.258;2023-11-21T01:06:29;8.87;;;6.10;;
11731;SDS011;5922;53.734;10.258;2023-11-21T01:08:56;9.67;;;6.83;;
11731;SDS011;5922;53.734;10.258;2023-11-21T01:11:23;8.40;;;6.53;;
11731;SDS011;5922;53.734;10.258;2023-11-21T01:13:51;7.10;;;6.27;;
11731;SDS011;5922;53.734;10.258;2023-11-21T01:16:19;8.47;;;5.80;;
11731;SDS011;5922;53.734;10.258;2023-11-21T01:18:46;9.43;;;7.17;;
11731;SDS011;5922;53.734;10.258;2023-11-21T01:21:19;8.77;;;6.17;;
11731;SDS011;5922;53.734;10.258;2023-11-21T01:24:08;5.80;;;5.03;;
11731;SDS011;5922;53.734;10.258;2023-11-21T01:26:35;10.17;;;5.13;;
11731;SDS011;5922;53.734;10.258;2023-11-21T01:29:02;6.00;;;5.03;;
11731;SDS011;5922;53.734;10.258;2023-11-21T01:31:30;5.63;;;4.87;;
11731;SDS011;5922;53.734;10.258;2023-11-21T01:33:57;6.43;;;5.23;;
11731;SDS011;5922;53.734;10.258;2023-11-21T01:36:29;6.33;;;4.93;;
11731;SDS011;5922;53.734;10.258;2023-11-21T01:38:57;5.27;;;4.73;;
11731;SDS011;5922;53.734;10.258;2023-11-21T01:41:26;6.03;;;4.83;;
11731;SDS011;5922;53.734;10.258;2023-11-21T01:43:55;4.73;;;4.17;;
11731;SDS011;5922;53.734;10.258;2023-11-21T01:46:27;6.53;;;4.87;;
11731;SDS011;5922;53.734;10.258;2023-11-21T01:49:01;6.33;;;5.30;;
11731;SDS011;5922;53.734;10.258;2023-11-21T01:51:30;6.67;;;4.70;;
11731;SDS011;5922;53.734;10.258;2023-11-21T01:53:58;6.63;;;4.70;;
11731;SDS011;5922;53.734;10.258;2023-11-21T01:56:26;5.97;;;4.90;;
11731;SDS011;5922;53.734;10.258;2023-11-21T01:58:56;6.40;;;4.93;;
11731;SDS011;5922;53.734;10.258;2023-11-21T02:01:24;6.60;;;4.90;;
11731;SDS011;5922;53.734;10.258;2023-11-21T02:03:52;6.33;;;5.03;;
11731;SDS011;5922;53.734;10.258;2023-11-21T02:06:20;5.60;;;4.93;;
11731;SDS011;5922;53.734;10.258;2023-11-21T02:08:49;7.50;;;5.23;;
11731;SDS011;5922;53.734;10.258;2023-11-21T02:11:16;6.73;;;5.57;;
11731;SDS011;5922;53.734;10.258;2023-11-21T02:13:46;8.27;;;5.73;;
11731;SDS011;5922;53.734;10.258;2023-11-21T02:16:15;7.67;;;5.43;;
11731;SDS011;5922;53.734;10.258;2023-11-21T02:18:42;6.90;;;5.53;;
11731;SDS011;5922;53.734;10.258;2023-11-21T02:21:09;8.37;;;5.70;;
11731;SDS011;5922;53.734;10.258;2023-11-21T02:23:38;8.93;;;5.77;;
11731;SDS011;5922;53.734;10.258;2023-11-21T02:26:09;6.67;;;5.50;;
11731;SDS011;5922;53.734;10.258;2023-11-21T02:28:36;7.73;;;5.80;;
11731;SDS011;5922;53.734;10.258;2023-11-21T02:31:04;7.37;;;5.73;;
11731;SDS011;5922;53.734;10.258;2023-11-21T02:33:32;7.10;;;6.03;;
11731;SDS011;5922;53.734;10.258;2023-11-21T02:36:00;8.80;;;6.00;;
11731;SDS011;5922;53.734;10.258;2023-11-21T02:38:28;6.77;;;5.60;;
11731;SDS011;5922;53.734;10.258;2023-11-21T02:40:58;8.63;;;6.53;;
11731;SDS011;5922;53.734;10.258;2023-11-21T02:43:25;8.20;;;6.20;;
11731;SDS011;5922;53.734;10.258;2023-11-21T02:45:52;9.23;;;6.13;;
11731;SDS011;5922;53.734;10.258;2023-11-21T02:48:20;11.80;;;6.37;;
11731;SDS011;5922;53.734;10.258;2023-11-21T02:50:49;9.50;;;5.77;;
11731;SDS011;5922;53.734;10.258;2023-11-21T02:53:18;8.37;;;5.80;;
11731;SDS011;5922;53.734;10.258;2023-11-21T02:55:45;6.93;;;5.87;;
11731;SDS011;5922;53.734;10.258;2023-11-21T02:58:14;7.67;;;5.57;;
11731;SDS011;5922;53.734;10.258;2023-11-21T03:00:41;9.13;;;5.67;;
11731;SDS011;5922;53.734;10.258;2023-11-21T03:03:08;6.87;;;5.57;;
11731;SDS011;5922;53.734;10.258;2023-11-21T03:05:35;10.70;;;6.20;;
11731;SDS011;5922;53.734;10.258;2023-11-21T03:08:03;11.00;;;6.17;;
11731;SDS011;5922;53.734;10.258;2023-11-21T03:10:31;9.27;;;6.07;;
11731;SDS011;5922;53.734;10.258;2023-11-21T03:12:58;9.03;;;5.90;;
11731;SDS011;5922;53.734;10.258;2023-11-21T03:15:27;8.27;;;5.67;;
11731;SDS011;5922;53.734;10.258;2023-11-21T03:17:54;8.13;;;6.23;;
11731;SDS011;5922;53.734;10.258;2023-11-21T03:20:22;7.27;;;5.77;;
11731;SDS011;5922;53.734;10.258;2023-11-21T03:22:50;7.90;;;6.13;;
11731;SDS011;5922;53.734;10.258;2023-11-21T03:25:19;7.77;;;5.87;;
11731;SDS011;5922;53.734;10.258;2023-11-21T03:27:49;8.07;;;6.07;;
11731;SDS011;5922;53.734;10.258;2023-11-21T03:30:16;9.63;;;6.17;;
11731;SDS011;5922;53.734;10.258;2023-11-21T03:32:45;8.50;;;6.27;;
11731;SDS011;5922;53.734;10.258;2023-11-21T03:35:12;7.03;;;6.00;;
11731;SDS011;5922;53.734;10.258;2023-11-21T03:37:39;6.67;;;5.90;;
11731;SDS011;5922;53.734;10.258;2023-11-21T03:40:08;8.10;;;6.30;;
11731;SDS011;5922;53.734;10.258;2023-11-21T03:42:37;11.37;;;5.87;;
11731;SDS011;5922;53.734;10.258;2023-11-21T03:45:04;8.47;;;6.20;;
11731;SDS011;5922;53.734;10.258;2023-11-21T03:47:32;7.97;;;5.53;;
11731;SDS011;5922;53.734;10.258;2023-11-21T03:50:01;10.20;;;6.20;;
11731;SDS011;5922;53.734;10.258;2023-11-21T03:52:28;8.63;;;5.90;;
11731;SDS011;5922;53.734;10.258;2023-11-21T03:54:55;6.67;;;5.70;;
11731;SDS011;5922;53.734;10.258;2023-11-21T03:57:23;7.13;;;5.60;;
11731;SDS011;5922;53.734;10.258;2023-11-21T03:59:50;7.03;;;5.80;;
11731;SDS011;5922;53.734;10.258;2023-11-21T04:02:17;8.57;;;5.83;;
11731;SDS011;5922;53.734;10.258;2023-11-21T04:04:44;9.03;;;6.20;;
11731;SDS011;5922;53.734;10.258;2023-11-21T04:07:14;6.43;;;5.40;;
11731;SDS011;5922;53.734;10.258;2023-11-21T04:09:42;7.00;;;5.10;;
11731;SDS011;5922;53.734;10.258;2023-11-21T04:12:09;5.97;;;5.17;;
11731;SDS011;5922;53.734;10.258;2023-11-21T04:14:37;6.30;;;5.23;;
11731;SDS011;5922;53.734;10.258;2023-11-21T04:17:06;6.87;;;5.37;;
11731;SDS011;5922;53.734;10.258;2023-11-21T04:19:34;7.30;;;5.37;;
11731;SDS011;5922;53.734;10.258;2023-11-21T04:22:01;8.03;;;5.73;;
11731;SDS011;5922;53.734;10.258;2023-11-21T04:24:30;8.03;;;5.73;;
11731;SDS011;5922;53.734;10.258;2023-11-21T04:26:58;7.37;;;5.40;;
11731;SDS011;5922;53.734;10.258;2023-11-21T04:29:25;6.77;;;5.33;;
11731;SDS011;5922;53.734;10.258;2023-11-21T04:31:52;8.23;;;6.10;;
11731;SDS011;5922;53.734;10.258;2023-11-21T04:34:19;7.67;;;5.50;;
11731;SDS011;5922;53.734;10.258;2023-11-21T04:36:47;6.80;;;5.73;;
11731;SDS011;5922;53.734;10.258;2023-11-21T04:39:14;8.30;;;6.33;;
11731;SDS011;5922;53.734;10.258;2023-11-21T04:41:43;7.23;;;5.50;;
11731;SDS011;5922;53.734;10.258;2023-11-21T04:44:11;9.10;;;5.83;;
11731;SDS011;5922;53.734;10.258;2023-11-21T04:46:39;9.17;;;6.10;;
11731;SDS011;5922;53.734;10.258;2023-11-21T04:49:06;7.27;;;5.87;;
11731;SDS011;5922;53.734;10.258;2023-11-21T04:51:36;7.47;;;5.90;;
11731;SDS011;5922;53.734;10.258;2023-11-21T04:54:03;8.63;;;5.97;;
11731;SDS011;5922;53.734;10.258;2023-11-21T04:56:30;9.07;;;6.17;;
11731;SDS011;5922;53.734;10.258;2023-11-21T04:58:59;8.83;;;6.23;;
11731;SDS011;5922;53.734;10.258;2023-11-21T05:01:26;6.53;;;5.77;;
11731;SDS011;5922;53.734;10.258;2023-11-21T05:03:54;7.23;;;6.07;;
11731;SDS011;5922;53.734;10.258;2023-11-21T05:06:23;7.10;;;5.90;;
11731;SDS011;5922;53.734;10.258;2023-11-21T05:08:50;8.40;;;6.17;;
11731;SDS011;5922;53.734;10.258;2023-11-21T05:11:24;6.67;;;5.77;;
11731;SDS011;5922;53.734;10.258;2023-11-21T05:13:51;7.53;;;5.70;;
11731;SDS011;5922;53.734;10.258;2023-11-21T05:16:22;7.93;;;6.17;;
11731;SDS011;5922;53.734;10.258;2023-11-21T05:18:49;6.00;;;5.27;;
11731;SDS011;5922;53.734;10.258;2023-11-21T05:21:16;7.60;;;5.73;;
11731;SDS011;5922;53.734;10.258;2023-11-21T05:23:46;7.67;;;5.77;;
11731;SDS011;5922;53.734;10.258;2023-11-21T05:26:13;6.80;;;5.70;;
11731;SDS011;5922;53.734;10.258;2023-11-21T05:28:40;7.33;;;6.00;;
11731;SDS011;5922;53.734;10.258;2023-11-21T05:31:07;8.23;;;5.97;;
11731;SDS011;5922;53.734;10.258;2023-11-21T05:33:37;8.83;;;6.43;;
11731;SDS011;5922;53.734;10.258;2023-11-21T05:36:04;8.07;;;6.23;;
11731;SDS011;5922;53.734;10.258;2023-11-21T05:38:33;7.60;;;6.17;;
11731;SDS011;5922;53.734;10.258;2023-11-21T05:41:00;7.20;;;6.23;;
11731;SDS011;5922;53.734;10.258;2023-11-21T05:43:28;8.20;;;6.17;;
11731;SDS011;5922;53.734;10.258;2023-11-21T05:45:57;7.13;;;5.80;;
11731;SDS011;5922;53.734;10.258;2023-11-21T05:48:24;11.07;;;5.83;;
11731;SDS011;5922;53.734;10.258;2023-11-21T05:50:53;6.67;;;5.83;;
11731;SDS011;5922;53.734;10.258;2023-11-21T05:53:20;8.97;;;6.20;;
11731;SDS011;5922;53.734;10.258;2023-11-21T05:55:48;6.67;;;5.53;;
11731;SDS011;5922;53.734;10.258;2023-11-21T05:58:15;8.43;;;5.70;;
11731;SDS011;5922;53.734;10.258;2023-11-21T06:00:48;7.67;;;5.77;;
11731;SDS011;5922;53.734;10.258;2023-11-21T06:03:15;8.20;;;5.77;;
11731;SDS011;5922;53.734;10.258;2023-11-21T06:05:44;9.40;;;5.90;;
11731;SDS011;5922;53.734;10.258;2023-11-21T06:08:13;8.57;;;5.50;;
11731;SDS011;5922;53.734;10.258;2023-11-21T06:10:42;6.90;;;5.67;;
11731;SDS011;5922;53.734;10.258;2023-11-21T06:13:10;7.20;;;4.93;;
11731;SDS011;5922;53.734;10.258;2023-11-21T06:15:37;6.23;;;5.33;;
11731;SDS011;5922;53.734;10.258;2023-11-21T06:18:07;5.93;;;5.20;;
11731;SDS011;5922;53.734;10.258;2023-11-21T06:20:44;13.77;;;5.27;;
11731;SDS011;5922;53.734;10.258;2023-11-21T06:23:13;6.87;;;5.03;;
11731;SDS011;5922;53.734;10.258;2023-11-21T06:25:41;5.20;;;4.20;;
11731;SDS011;5922;53.734;10.258;2023-11-21T06:28:08;5.90;;;4.60;;
11731;SDS011;5922;53.734;10.258;2023-11-21T06:30:38;5.43;;;4.13;;
11731;SDS011;5922;53.734;10.258;2023-11-21T06:33:05;5.43;;;4.60;;
11731;SDS011;5922;53.734;10.258;2023-11-21T06:35:33;6.93;;;4.67;;
11731;SDS011;5922;53.734;10.258;2023-11-21T06:38:03;8.97;;;4.47;;
11731;SDS011;5922;53.734;10.258;2023-11-21T06:40:32;5.57;;;4.40;;
11731;SDS011;5922;53.734;10.258;2023-11-21T06:43:00;7.80;;;4.50;;
11731;SDS011;5922;53.734;10.258;2023-11-21T06:45:28;5.50;;;4.53;;
11731;SDS011;5922;53.734;10.258;2023-11-21T06:47:55;7.77;;;4.20;;
11731;SDS011;5922;53.734;10.258;2023-11-21T06:50:23;6.60;;;4.67;;
11731;SDS011;5922;53.734;10.258;2023-11-21T06:52:50;5.13;;;4.30;;
11731;SDS011;5922;53.734;10.258;2023-11-21T06:55:17;5.03;;;3.97;;
11731;SDS011;5922;53.734;10.258;2023-11-21T06:57:46;4.80;;;4.30;;
11731;SDS011;5922;53.734;10.258;2023-11-21T07:00:17;5.27;;;4.40;;
11731;SDS011;5922;53.734;10.258;2023-11-21T07:02:45;6.50;;;4.50;;
11731;SDS011;5922;53.734;10.258;2023-11-21T07:05:12;5.30;;;3.93;;
11731;SDS011;5922;53.734;10.258;2023-11-21T07:07:40;5.20;;;3.73;;
11731;SDS011;5922;53.734;10.258;2023-11-21T07:10:08;4.93;;;3.63;;
11731;SDS011;5922;53.734;10.258;2023-11-21T07:12:38;5.87;;;4.13;;
11731;SDS011;5922;53.734;10.258;2023-11-21T07:15:09;5.23;;;3.70;;
11731;SDS011;5922;53.734;10.258;2023-11-21T07:17:36;6.03;;;4.40;;
11731;SDS011;5922;53.734;10.258;2023-11-21T07:20:06;5.67;;;4.20;;
11731;SDS011;5922;53.734;10.258;2023-11-21T07:22:34;5.93;;;3.87;;
11731;SDS011;5922;53.734;10.258;2023-11-21T07:25:02;5.50;;;3.70;;
11731;SDS011;5922;53.734;10.258;2023-11-21T07:27:34;5.03;;;3.63;;
11731;SDS011;5922;53.734;10.258;2023-11-21T07:30:02;4.30;;;3.90;;
11731;SDS011;5922;53.734;10.258;2023-11-21T07:32:36;5.30;;;3.80;;
11731;SDS011;5922;53.734;10.258;2023-11-21T07:35:05;6.43;;;4.17;;
11731;SDS011;5922;53.734;10.258;2023-11-21T07:37:35;5.70;;;4.07;;
11731;SDS011;5922;53.734;10.258;2023-11-21T07:40:02;5.17;;;4.23;;
11731;SDS011;5922;53.734;10.258;2023-11-21T07:42:30;6.33;;;4.50;;
11731;SDS011;5922;53.734;10.258;2023-11-21T07:44:58;3.87;;;3.27;;
11731;SDS011;5922;53.734;10.258;2023-11-21T07:47:28;5.30;;;3.20;;
11731;SDS011;5922;53.734;10.258;2023-11-21T07:49:57;5.00;;;3.40;;
11731;SDS011;5922;53.734;10.258;2023-11-21T07:52:24;6.27;;;4.03;;
11731;SDS011;5922;53.734;10.258;2023-11-21T07:54:52;4.73;;;3.20;;
11731;SDS011;5922;53.734;10.258;2023-11-21T07:57:19;5.07;;;3.33;;
11731;SDS011;5922;53.734;10.258;2023-11-21T07:59:46;3.53;;;3.23;;
11731;SDS011;5922;53.734;10.258;2023-11-21T08:02:14;3.80;;;3.47;;
11731;SDS011;5922;53.734;10.258;2023-11-21T08:04:43;5.93;;;3.53;;
11731;SDS011;5922;53.734;10.258;2023-11-21T08:07:12;4.43;;;3.20;;
11731;SDS011;5922;53.734;10.258;2023-11-21T08:09:39;3.87;;;3.20;;
11731;SDS011;5922;53.734;10.258;2023-11-21T08:12:07;7.50;;;4.30;;
11731;SDS011;5922;53.734;10.258;2023-11-21T08:14:38;4.07;;;3.67;;
11731;SDS011;5922;53.734;10.258;2023-11-21T08:17:06;5.67;;;3.93;;
11731;SDS011;5922;53.734;10.258;2023-11-21T08:19:35;4.63;;;3.67;;
11731;SDS011;5922;53.734;10.258;2023-11-21T08:22:03;5.33;;;3.77;;
11731;SDS011;5922;53.734;10.258;2023-11-21T08:24:37;5.47;;;4.30;;
11731;SDS011;5922;53.734;10.258;2023-11-21T08:27:04;6.53;;;3.60;;
11731;SDS011;5922;53.734;10.258;2023-11-21T08:29:32;5.60;;;3.40;;
11731;SDS011;5922;53.734;10.258;2023-11-21T08:32:01;5.73;;;3.60;;
11731;SDS011;5922;53.734;10.258;2023-11-21T08:34:28;3.33;;;3.03;;
11731;SDS011;5922;53.734;10.258;2023-11-21T08:36:58;3.50;;;3.20;;
11731;SDS011;5922;53.734;10.258;2023-11-21T08:39:37;3.50;;;3.17;;
11731;SDS011;5922;53.734;10.258;2023-11-21T08:42:07;3.20;;;2.90;;
11731;SDS011;5922;53.734;10.258;2023-11-21T08:44:45;4.03;;;3.00;;
11731;SDS011;5922;53.734;10.258;2023-11-21T08:47:16;5.47;;;3.30;;
11731;SDS011;5922;53.734;10.258;2023-11-21T08:49:44;4.03;;;3.30;;
11731;SDS011;5922;53.734;10.258;2023-11-21T08:52:14;5.97;;;3.07;;
11731;SDS011;5922;53.734;10.258;2023-11-21T08:54:45;3.20;;;2.90;;
11731;SDS011;5922;53.734;10.258;2023-11-21T08:57:21;3.03;;;2.73;;
11731;SDS011;5922;53.734;10.258;2023-11-21T08:59:50;4.23;;;2.90;;
11731;SDS011;5922;53.734;10.258;2023-11-21T09:02:25;3.57;;;3.00;;
11731;SDS011;5922;53.734;10.258;2023-11-21T09:04:56;6.33;;;3.20;;
11731;SDS011;5922;53.734;10.258;2023-11-21T09:07:29;3.33;;;2.87;;
11731;SDS011;5922;53.734;10.258;2023-11-21T09:09:57;3.17;;;2.87;;
11731;SDS011;5922;53.734;10.258;2023-11-21T09:12:25;6.63;;;2.93;;
11731;SDS011;5922;53.734;10.258;2023-11-21T09:15:00;3.63;;;2.93;;
11731;SDS011;5922;53.734;10.258;2023-11-21T09:17:32;5.40;;;2.70;;
11731;SDS011;5922;53.734;10.258;2023-11-21T09:20:11;5.17;;;2.90;;
11731;SDS011;5922;53.734;10.258;2023-11-21T09:22:51;3.67;;;2.70;;
11731;SDS011;5922;53.734;10.258;2023-11-21T09:25:36;3.20;;;2.63;;
11731;SDS011;5922;53.734;10.258;2023-11-21T09:28:04;4.07;;;2.23;;
11731;SDS011;5922;53.734;10.258;2023-11-21T09:30:56;3.30;;;2.50;;
11731;SDS011;5922;53.734;10.258;2023-11-21T09:33:44;2.70;;;2.47;;
11731;SDS011;5922;53.734;10.258;2023-11-21T09:36:13;2.77;;;2.27;;
11731;SDS011;5922;53.734;10.258;2023-11-21T09:38:41;2.93;;;2.50;;
11731;SDS011;5922;53.734;10.258;2023-11-21T09:41:11;4.03;;;2.50;;
11731;SDS011;5922;53.734;10.258;2023-11-21T09:43:44;2.73;;;2.43;;
11731;SDS011;5922;53.734;10.258;2023-11-21T09:46:12;2.43;;;2.10;;
11731;SDS011;5922;53.734;10.258;2023-11-21T09:48:46;2.43;;;2.20;;
11731;SDS011;5922;53.734;10.258;2023-11-21T09:51:15;2.93;;;2.20;;
11731;SDS011;5922;53.734;10.258;2023-11-21T09:53:56;2.37;;;2.17;;
11731;SDS011;5922;53.734;10.258;2023-11-21T09:56:33;2.13;;;2.03;;
11731;SDS011;5922;53.734;10.258;2023-11-21T09:59:01;2.67;;;2.20;;
11731;SDS011;5922;53.734;10.258;2023-11-21T10:01:32;2.67;;;2.43;;
11731;SDS011;5922;53.734;10.258;2023-11-21T10:03:59;2.40;;;2.20;;
11731;SDS011;5922;53.734;10.258;2023-11-21T10:06:27;6.07;;;3.27;;
11731;SDS011;5922;53.734;10.258;2023-11-21T10:08:55;4.13;;;2.83;;
11731;SDS011;5922;53.734;10.258;2023-11-21T10:11:24;2.93;;;2.73;;
11731;SDS011;5922;53.734;10.258;2023-11-21T10:13:54;4.00;;;2.30;;
11731;SDS011;5922;53.734;10.258;2023-11-21T10:16:22;3.97;;;2.53;;
11731;SDS011;5922;53.734;10.258;2023-11-21T10:18:52;6.03;;;3.37;;
11731;SDS011;5922;53.734;10.258;2023-11-21T10:21:20;2.70;;;2.27;;
11731;SDS011;5922;53.734;10.258;2023-11-21T10:23:48;3.00;;;2.70;;
11731;SDS011;5922;53.734;10.258;2023-11-21T10:26:18;5.17;;;2.60;;
11731;SDS011;5922;53.734;10.258;2023-11-21T10:28:56;2.40;;;2.20;;
11731;SDS011;5922;53.734;10.258;2023-11-21T10:31:24;3.80;;;2.90;;
11731;SDS011;5922;53.734;10.258;2023-11-21T10:33:51;3.30;;;2.40;;
11731;SDS011;5922;53.734;10.258;2023-11-21T10:36:24;3.50;;;2.60;;
11731;SDS011;5922;53.734;10.258;2023-11-21T10:38:52;3.87;;;2.60;;
11731;SDS011;5922;53.734;10.258;2023-11-21T10:41:20;3.13;;;2.63;;
11731;SDS011;5922;53.734;10.258;2023-11-21T10:43:47;4.83;;;3.20;;
11731;SDS011;5922;53.734;10.258;2023-11-21T10:46:16;3.53;;;3.00;;
11731;SDS011;5922;53.734;10.258;2023-11-21T10:48:44;2.93;;;2.63;;
11731;SDS011;5922;53.734;10.258;2023-11-21T10:51:11;5.77;;;2.50;;
11731;SDS011;5922;53.734;10.258;2023-11-21T10:53:39;4.50;;;2.80;;
11731;SDS011;5922;53.734;10.258;2023-11-21T10:56:08;2.87;;;2.30;;
11731;SDS011;5922;53.734;10.258;2023-11-21T10:58:36;3.43;;;2.47;;
11731;SDS011;5922;53.734;10.258;2023-11-21T11:01:05;2.90;;;2.50;;
11731;SDS011;5922;53.734;10.258;2023-11-21T11:06:32;5.17;;;2.40;;
11731;SDS011;5922;53.734;10.258;2023-11-21T11:09:00;3.40;;;2.57;;
11731;SDS011;5922;53.734;10.258;2023-11-21T11:11:28;2.87;;;2.40;;
11731;SDS011;5922;53.734;10.258;2023-11-21T11:13:57;3.40;;;2.50;;
11731;SDS011;5922;53.734;10.258;2023-11-21T11:16:25;3.70;;;2.40;;
11731;SDS011;5922;53.734;10.258;2023-11-21T11:18:54;3.47;;;2.70;;
11731;SDS011;5922;53.734;10.258;2023-11-21T11:21:27;2.93;;;2.33;;
11731;SDS011;5922;53.734;10.258;2023-11-21T11:24:10;4.33;;;2.27;;
11731;SDS011;5922;53.734;10.258;2023-11-21T11:26:42;3.17;;;2.67;;
11731;SDS011;5922;53.734;10.258;2023-11-21T11:29:14;3.80;;;2.60;;
11731;SDS011;5922;53.734;10.258;2023-11-21T11:31:49;3.27;;;2.50;;
11731;SDS011;5922;53.734;10.258;2023-11-21T11:34:19;2.43;;;2.23;;
11731;SDS011;5922;53.734;10.258;2023-11-21T11:36:49;3.60;;;2.67;;
11731;SDS011;5922;53.734;10.258;2023-11-21T11:39:28;3.93;;;2.50;;
11731;SDS011;5922;53.734;10.258;2023-11-21T11:44:58;3.67;;;2.50;;
11731;SDS011;5922;53.734;10.258;2023-11-21T11:47:26;2.87;;;2.33;;
11731;SDS011;5922;53.734;10.258;2023-11-21T11:49:58;4.33;;;2.40;;
11731;SDS011;5922;53.734;10.258;2023-11-21T11:52:31;3.03;;;2.27;;
11731;SDS011;5922;53.734;10.258;2023-11-21T11:55:01;3.20;;;2.03;;
11731;SDS011;5922;53.734;10.258;2023-11-21T11:57:29;3.27;;;2.57;;
11731;SDS011;5922;53.734;10.258;2023-11-21T12:00:07;3.73;;;2.47;;
11731;SDS011;5922;53.734;10.258;2023-11-21T12:02:35;2.80;;;2.53;;
11731;SDS011;5922;53.734;10.258;2023-11-21T12:05:06;3.20;;;2.73;;
11731;SDS011;5922;53.734;10.258;2023-11-21T12:07:39;3.37;;;2.70;;
11731;SDS011;5922;53.734;10.258;2023-11-21T12:10:10;2.80;;;2.60;;
11731;SDS011;5922;53.734;10.258;2023-11-21T12:12:41;5.37;;;3.03;;
11731;SDS011;5922;53.734;10.258;2023-11-21T12:15:09;3.97;;;3.20;;
11731;SDS011;5922;53.734;10.258;2023-11-21T12:17:37;3.83;;;2.90;;
11731;SDS011;5922;53.734;10.258;2023-11-21T12:20:05;4.03;;;3.47;;
11731;SDS011;5922;53.734;10.258;2023-11-21T12:22:39;2.73;;;2.20;;
11731;SDS011;5922;53.734;10.258;2023-11-21T12:25:07;3.33;;;2.67;;
11731;SDS011;5922;53.734;10.258;2023-11-21T12:27:35;3.13;;;2.73;;
11731;SDS011;5922;53.734;10.258;2023-11-21T12:30:03;3.23;;;2.50;;
11731;SDS011;5922;53.734;10.258;2023-11-21T12:32:30;3.00;;;2.47;;
11731;SDS011;5922;53.734;10.258;2023-11-21T12:34:58;4.07;;;2.50;;
11731;SDS011;5922;53.734;10.258;2023-11-21T12:37:28;2.80;;;2.60;;
11731;SDS011;5922;53.734;10.258;2023-11-21T12:39:55;3.00;;;2.70;;
11731;SDS011;5922;53.734;10.258;2023-11-21T12:42:23;3.00;;;2.50;;
11731;SDS011;5922;53.734;10.258;2023-11-21T12:47:35;3.50;;;2.83;;
11731;SDS011;5922;53.734;10.258;2023-11-21T12:50:05;6.57;;;4.03;;
11731;SDS011;5922;53.734;10.258;2023-11-21T12:52:40;4.07;;;2.70;;
11731;SDS011;5922;53.734;10.258;2023-11-21T12:55:09;3.20;;;2.90;;
11731;SDS011;5922;53.734;10.258;2023-11-21T12:57:41;4.37;;;2.50;;
11731;SDS011;5922;53.734;10.258;2023-11-21T13:00:09;3.97;;;3.00;;
11731;SDS011;5922;53.734;10.258;2023-11-21T13:02:42;3.23;;;2.60;;
11731;SDS011;5922;53.734;10.258;2023-11-21T13:05:09;3.30;;;3.00;;
11731;SDS011;5922;53.734;10.258;2023-11-21T13:07:46;3.13;;;2.83;;
11731;SDS011;5922;53.734;10.258;2023-11-21T13:10:16;4.23;;;3.20;;
11731;SDS011;5922;53.734;10.258;2023-11-21T13:12:43;5.13;;;2.80;;
11731;SDS011;5922;53.734;10.258;2023-11-21T13:15:13;4.77;;;3.13;;
11731;SDS011;5922;53.734;10.258;2023-11-21T13:17:43;4.57;;;2.50;;
11731;SDS011;5922;53.734;10.258;2023-11-21T13:20:11;2.43;;;2.23;;
11731;SDS011;5922;53.734;10.258;2023-11-21T13:22:45;4.73;;;2.47;;
11731;SDS011;5922;53.734;10.258;2023-11-21T13:25:14;2.27;;;2.03;;
11731;SDS011;5922;53.734;10.258;2023-11-21T13:27:42;2.30;;;2.00;;
11731;SDS011;5922;53.734;10.258;2023-11-21T13:30:11;2.47;;;2.10;;
11731;SDS011;5922;53.734;10.258;2023-11-21T13:32:40;4.17;;;2.40;;
11731;SDS011;5922;53.734;10.258;2023-11-21T13:35:09;3.03;;;2.20;;
11731;SDS011;5922;53.734;10.258;2023-11-21T13:37:48;3.50;;;2.30;;
11731;SDS011;5922;53.734;10.258;2023-11-21T13:40:21;3.80;;;2.40;;
11731;SDS011;5922;53.734;10.258;2023-11-21T13:42:50;6.00;;;2.80;;
11731;SDS011;5922;53.734;10.258;2023-11-21T13:45:20;3.03;;;2.43;;
11731;SDS011;5922;53.734;10.258;2023-11-21T13:47:48;2.83;;;2.40;;
11731;SDS011;5922;53.734;10.258;2023-11-21T13:50:18;2.33;;;2.13;;
11731;SDS011;5922;53.734;10.258;2023-11-21T13:52:49;2.20;;;1.67;;
11731;SDS011;5922;53.734;10.258;2023-11-21T13:55:18;2.10;;;1.70;;
11731;SDS011;5922;53.734;10.258;2023-11-21T13:57:47;1.80;;;1.70;;
11731;SDS011;5922;53.734;10.258;2023-11-21T14:00:17;1.53;;;1.43;;
11731;SDS011;5922;53.734;10.258;2023-11-21T14:03:10;2.83;;;1.60;;
11731;SDS011;5922;53.734;10.258;2023-11-21T14:05:47;1.90;;;1.60;;
11731;SDS011;5922;53.734;10.258;2023-11-21T14:08:16;1.80;;;1.70;;
11731;SDS011;5922;53.734;10.258;2023-11-21T14:10:46;2.33;;;1.70;;
11731;SDS011;5922;53.734;10.258;2023-11-21T14:13:20;2.17;;;1.63;;
11731;SDS011;5922;53.734;10.258;2023-11-21T14:15:48;2.07;;;1.67;;
11731;SDS011;5922;53.734;10.258;2023-11-21T14:18:45;2.93;;;1.90;;
11731;SDS011;5922;53.734;10.258;2023-11-21T14:21:22;1.83;;;1.73;;
11731;SDS011;5922;53.734;10.258;2023-11-21T14:23:49;2.50;;;2.03;;
11731;SDS011;5922;53.734;10.258;2023-11-21T14:26:16;2.63;;;2.10;;
11731;SDS011;5922;53.734;10.258;2023-11-21T14:28:44;9.60;;;4.70;;
11731;SDS011;5922;53.734;10.258;2023-11-21T14:31:14;12.83;;;6.57;;
11731;SDS011;5922;53.734;10.258;2023-11-21T14:33:42;3.20;;;2.70;;
11731;SDS011;5922;53.734;10.258;2023-11-21T14:36:10;2.83;;;2.40;;
11731;SDS011;5922;53.734;10.258;2023-11-21T14:38:39;5.17;;;2.90;;
11731;SDS011;5922;53.734;10.258;2023-11-21T14:41:07;3.73;;;2.57;;
11731;SDS011;5922;53.734;10.258;2023-11-21T14:43:36;3.40;;;3.00;;
11731;SDS011;5922;53.734;10.258;2023-11-21T14:46:04;5.43;;;2.60;;
11731;SDS011;5922;53.734;10.258;2023-11-21T14:48:35;3.90;;;2.87;;
11731;SDS011;5922;53.734;10.258;2023-11-21T14:51:07;4.07;;;2.40;;
11731;SDS011;5922;53.734;10.258;2023-11-21T14:53:57;3.37;;;2.77;;
11731;SDS011;5922;53.734;10.258;2023-11-21T14:56:25;2.40;;;2.13;;
11731;SDS011;5922;53.734;10.258;2023-11-21T14:58:56;3.07;;;2.03;;
11731;SDS011;5922;53.734;10.258;2023-11-21T15:01:22;2.33;;;2.13;;
11731;SDS011;5922;53.734;10.258;2023-11-21T15:04:07;2.53;;;1.80;;
11731;SDS011;5922;53.734;10.258;2023-11-21T15:06:39;3.87;;;2.80;;
11731;SDS011;5922;53.734;10.258;2023-11-21T15:09:09;3.30;;;2.57;;